Kezdőlap
METAR-TAF:

METAR-TAF

Repülőterek :

St. Paul Downtown Airport (Holman Field)

Saint Paul, Minnesota, Amerikai Egyesült Államok

földrajzi szélesség: 44-55-49N, földrajzi hosszúság: 093-02-53W, magasság: 214 m

Jelenlegi meteorológiai megfigyelések

A jelentés 10 perccel ezelõtt készült, 13:53 UTC
Dél-délnyugati szél 14 kt széllökések: 20 kt
Hőmérséklet 23°C
Páratartalom 83%
Légköri nyomás 1018 hPa
Látótávolság: 8.0 km
Szakadozott felhőzet 10000 lábon
Szakadozott felhőzet 12000 lábon
enyhe esõ

METAR: KSTP 281353Z 21014G20KT 5SM -RA BKN100 BKN120 23/20 A3005 RMK AO2 LTG DSNT S TSE1257B1259E28 PRESFR SLP169 P0005 T02280200

Idő: 09:03 (14:03 UTC)


TAF: hiányzik

Meteorológiai megfigyelések és előrejelzések több, mint 4000 repülőtéren (METAR és TAF jelentéseket).

A térképen piros és sárga pontok jelzik az elérhető meteorológiai állomásokat.

Mozgassa az egeret a pont fölött, hogy megjelenjen az állomás neve.

Azután kattintson az időjárási megfigyelések és előrejelzések megtekintéséhez.

A térkép megváltoztatása: kattintson a fekete keresztel jelölt zöld gombra ráközelítéshez, a vonallal jelölt zöld gombra távolításhoz, vagy a zöld nyilakra a szomszédos térképek eléréséhez.


METAR-TAF: